sensor_id;sensor_type;location;lat;lon;timestamp;temperature;humidity
69776;DHT22;57049;51.450;-2.516;2022-09-09T00:00:20;15.20;99.99
69776;DHT22;57049;51.450;-2.516;2022-09-09T00:02:56;15.23;99.99
69776;DHT22;57049;51.450;-2.516;2022-09-09T00:05:44;15.23;99.99
69776;DHT22;57049;51.450;-2.516;2022-09-09T00:08:18;15.28;99.99
69776;DHT22;57049;51.450;-2.516;2022-09-09T00:10:48;15.24;99.99
69776;DHT22;57049;51.450;-2.516;2022-09-09T00:13:23;15.23;99.99
69776;DHT22;57049;51.450;-2.516;2022-09-09T00:16:12;15.23;99.99
69776;DHT22;57049;51.450;-2.516;2022-09-09T00:19:07;15.23;99.99
69776;DHT22;57049;51.450;-2.516;2022-09-09T00:21:46;15.30;99.99
69776;DHT22;57049;51.450;-2.516;2022-09-09T00:24:26;15.28;99.99
69776;DHT22;57049;51.450;-2.516;2022-09-09T00:27:01;15.28;99.99
69776;DHT22;57049;51.450;-2.516;2022-09-09T00:29:45;15.28;99.99
69776;DHT22;57049;51.450;-2.516;2022-09-09T00:32:18;15.30;99.99
69776;DHT22;57049;51.450;-2.516;2022-09-09T00:34:50;15.28;99.99
69776;DHT22;57049;51.450;-2.516;2022-09-09T00:37:19;15.24;99.99
69776;DHT22;57049;51.450;-2.516;2022-09-09T00:39:45;15.25;99.99
69776;DHT22;57049;51.450;-2.516;2022-09-09T00:42:17;15.21;99.99
69776;DHT22;57049;51.450;-2.516;2022-09-09T00:45:16;15.18;99.99
69776;DHT22;57049;51.450;-2.516;2022-09-09T00:47:50;15.15;99.99
69776;DHT22;57049;51.450;-2.516;2022-09-09T00:55:48;15.20;99.99
69776;DHT22;57049;51.450;-2.516;2022-09-09T00:58:15;15.17;99.99
69776;DHT22;57049;51.450;-2.516;2022-09-09T01:00:52;15.17;99.99
69776;DHT22;57049;51.450;-2.516;2022-09-09T01:06:26;15.11;99.99
69776;DHT22;57049;51.450;-2.516;2022-09-09T01:17:30;15.00;99.99
69776;DHT22;57049;51.450;-2.516;2022-09-09T01:22:57;14.84;99.99
69776;DHT22;57049;51.450;-2.516;2022-09-09T01:26:01;14.83;99.99
69776;DHT22;57049;51.450;-2.516;2022-09-09T01:28:31;14.73;99.99
69776;DHT22;57049;51.450;-2.516;2022-09-09T01:30:58;14.70;99.99
69776;DHT22;57049;51.450;-2.516;2022-09-09T01:33:24;14.74;99.99
69776;DHT22;57049;51.450;-2.516;2022-09-09T01:36:00;14.70;99.99
69776;DHT22;57049;51.450;-2.516;2022-09-09T01:38:30;14.73;99.99
69776;DHT22;57049;51.450;-2.516;2022-09-09T01:40:56;14.63;99.99
69776;DHT22;57049;51.450;-2.516;2022-09-09T01:43:24;14.60;99.99
69776;DHT22;57049;51.450;-2.516;2022-09-09T01:45:53;14.52;99.99
69776;DHT22;57049;51.450;-2.516;2022-09-09T01:48:21;14.46;99.99
69776;DHT22;57049;51.450;-2.516;2022-09-09T01:50:48;14.43;99.99
69776;DHT22;57049;51.450;-2.516;2022-09-09T01:53:14;14.36;99.99
69776;DHT22;57049;51.450;-2.516;2022-09-09T01:56:07;14.30;99.99
69776;DHT22;57049;51.450;-2.516;2022-09-09T01:59:30;14.16;99.99
69776;DHT22;57049;51.450;-2.516;2022-09-09T02:06:56;14.15;99.99
69776;DHT22;57049;51.450;-2.516;2022-09-09T02:09:26;14.16;99.99
69776;DHT22;57049;51.450;-2.516;2022-09-09T02:12:13;14.26;99.99
69776;DHT22;57049;51.450;-2.516;2022-09-09T02:14:43;14.28;99.99
69776;DHT22;57049;51.450;-2.516;2022-09-09T02:17:11;14.26;99.99
69776;DHT22;57049;51.450;-2.516;2022-09-09T02:19:45;14.28;99.99
69776;DHT22;57049;51.450;-2.516;2022-09-09T02:22:16;14.29;99.99
69776;DHT22;57049;51.450;-2.516;2022-09-09T02:24:42;14.33;99.99
69776;DHT22;57049;51.450;-2.516;2022-09-09T02:27:10;14.30;99.99
69776;DHT22;57049;51.450;-2.516;2022-09-09T02:29:39;14.32;99.99
69776;DHT22;57049;51.450;-2.516;2022-09-09T02:32:10;14.29;99.99
69776;DHT22;57049;51.450;-2.516;2022-09-09T02:34:45;14.32;99.99
69776;DHT22;57049;51.450;-2.516;2022-09-09T02:37:12;14.42;99.99
69776;DHT22;57049;51.450;-2.516;2022-09-09T02:39:40;14.37;99.99
69776;DHT22;57049;51.450;-2.516;2022-09-09T02:42:06;14.32;99.99
69776;DHT22;57049;51.450;-2.516;2022-09-09T02:44:33;14.43;99.99
69776;DHT22;57049;51.450;-2.516;2022-09-09T02:47:25;14.43;99.99
69776;DHT22;57049;51.450;-2.516;2022-09-09T02:50:07;14.40;99.99
69776;DHT22;57049;51.450;-2.516;2022-09-09T02:55:35;14.36;99.99
69776;DHT22;57049;51.450;-2.516;2022-09-09T02:58:05;14.37;99.99
69776;DHT22;57049;51.450;-2.516;2022-09-09T03:00:32;14.36;99.99
69776;DHT22;57049;51.450;-2.516;2022-09-09T03:02:58;14.37;99.99
69776;DHT22;57049;51.450;-2.516;2022-09-09T03:05:23;14.36;99.99
69776;DHT22;57049;51.450;-2.516;2022-09-09T03:07:49;14.39;99.99
69776;DHT22;57049;51.450;-2.516;2022-09-09T03:10:16;14.39;99.99
69776;DHT22;57049;51.450;-2.516;2022-09-09T03:12:42;14.40;99.99
69776;DHT22;57049;51.450;-2.516;2022-09-09T03:15:08;14.37;99.99
69776;DHT22;57049;51.450;-2.516;2022-09-09T03:17:33;14.37;99.99
69776;DHT22;57049;51.450;-2.516;2022-09-09T03:19:59;14.37;99.99
69776;DHT22;57049;51.450;-2.516;2022-09-09T03:22:25;14.34;99.99
69776;DHT22;57049;51.450;-2.516;2022-09-09T03:24:51;14.34;99.99
69776;DHT22;57049;51.450;-2.516;2022-09-09T03:27:17;14.30;99.99
69776;DHT22;57049;51.450;-2.516;2022-09-09T03:29:42;14.30;99.99
69776;DHT22;57049;51.450;-2.516;2022-09-09T03:32:08;14.30;99.99
69776;DHT22;57049;51.450;-2.516;2022-09-09T03:34:36;14.30;99.99
69776;DHT22;57049;51.450;-2.516;2022-09-09T03:37:04;14.34;99.99
69776;DHT22;57049;51.450;-2.516;2022-09-09T03:39:31;14.36;99.99
69776;DHT22;57049;51.450;-2.516;2022-09-09T03:41:56;14.40;99.99
69776;DHT22;57049;51.450;-2.516;2022-09-09T03:44:22;14.46;99.99
69776;DHT22;57049;51.450;-2.516;2022-09-09T03:46:47;14.44;99.99
69776;DHT22;57049;51.450;-2.516;2022-09-09T03:49:13;14.43;99.99
69776;DHT22;57049;51.450;-2.516;2022-09-09T03:51:38;14.39;99.99
69776;DHT22;57049;51.450;-2.516;2022-09-09T03:54:04;14.39;99.99
69776;DHT22;57049;51.450;-2.516;2022-09-09T03:56:33;14.50;99.99
69776;DHT22;57049;51.450;-2.516;2022-09-09T03:58:59;14.49;99.99
69776;DHT22;57049;51.450;-2.516;2022-09-09T04:01:24;14.46;99.99
69776;DHT22;57049;51.450;-2.516;2022-09-09T04:03:49;14.43;99.99
69776;DHT22;57049;51.450;-2.516;2022-09-09T04:06:15;14.49;99.90
69776;DHT22;57049;51.450;-2.516;2022-09-09T04:08:42;14.47;99.99
69776;DHT22;57049;51.450;-2.516;2022-09-09T04:11:08;14.47;99.99
69776;DHT22;57049;51.450;-2.516;2022-09-09T04:13:35;14.50;99.70
69776;DHT22;57049;51.450;-2.516;2022-09-09T04:16:03;14.52;99.85
69776;DHT22;57049;51.450;-2.516;2022-09-09T04:18:29;14.56;99.40
69776;DHT22;57049;51.450;-2.516;2022-09-09T04:20:55;14.57;98.96
69776;DHT22;57049;51.450;-2.516;2022-09-09T04:23:25;14.56;98.88
69776;DHT22;57049;51.450;-2.516;2022-09-09T04:25:53;14.53;98.97
69776;DHT22;57049;51.450;-2.516;2022-09-09T04:28:21;14.52;98.81
69776;DHT22;57049;51.450;-2.516;2022-09-09T04:30:47;14.59;98.60
69776;DHT22;57049;51.450;-2.516;2022-09-09T04:33:13;14.50;98.31
69776;DHT22;57049;51.450;-2.516;2022-09-09T04:35:44;14.53;98.75
69776;DHT22;57049;51.450;-2.516;2022-09-09T04:38:10;14.59;98.32
69776;DHT22;57049;51.450;-2.516;2022-09-09T04:40:35;14.57;98.13
69776;DHT22;57049;51.450;-2.516;2022-09-09T04:43:02;14.60;98.36
69776;DHT22;57049;51.450;-2.516;2022-09-09T04:45:30;14.57;98.10
69776;DHT22;57049;51.450;-2.516;2022-09-09T04:47:56;14.62;98.28
69776;DHT22;57049;51.450;-2.516;2022-09-09T04:50:22;14.60;98.06
69776;DHT22;57049;51.450;-2.516;2022-09-09T04:52:47;14.63;98.01
69776;DHT22;57049;51.450;-2.516;2022-09-09T04:55:13;14.63;97.33
69776;DHT22;57049;51.450;-2.516;2022-09-09T04:57:39;14.63;97.44
69776;DHT22;57049;51.450;-2.516;2022-09-09T05:00:06;14.62;97.37
69776;DHT22;57049;51.450;-2.516;2022-09-09T05:02:32;14.69;97.19
69776;DHT22;57049;51.450;-2.516;2022-09-09T05:04:57;14.60;96.94
69776;DHT22;57049;51.450;-2.516;2022-09-09T05:07:23;14.62;96.92
69776;DHT22;57049;51.450;-2.516;2022-09-09T05:09:49;14.60;97.40
69776;DHT22;57049;51.450;-2.516;2022-09-09T05:12:15;14.60;97.49
69776;DHT22;57049;51.450;-2.516;2022-09-09T05:14:42;14.64;96.80
69776;DHT22;57049;51.450;-2.516;2022-09-09T05:17:08;14.62;96.62
69776;DHT22;57049;51.450;-2.516;2022-09-09T05:19:33;14.64;96.22
69776;DHT22;57049;51.450;-2.516;2022-09-09T05:21:59;14.59;96.88
69776;DHT22;57049;51.450;-2.516;2022-09-09T05:24:26;14.53;96.23
69776;DHT22;57049;51.450;-2.516;2022-09-09T05:26:52;14.52;97.12
69776;DHT22;57049;51.450;-2.516;2022-09-09T05:29:17;14.53;96.53
69776;DHT22;57049;51.450;-2.516;2022-09-09T05:31:45;14.53;96.88
69776;DHT22;57049;51.450;-2.516;2022-09-09T05:34:10;14.50;97.15
69776;DHT22;57049;51.450;-2.516;2022-09-09T05:36:36;14.52;96.93
69776;DHT22;57049;51.450;-2.516;2022-09-09T05:39:03;14.50;96.61
69776;DHT22;57049;51.450;-2.516;2022-09-09T05:41:28;14.49;96.23
69776;DHT22;57049;51.450;-2.516;2022-09-09T05:43:54;14.52;96.44
69776;DHT22;57049;51.450;-2.516;2022-09-09T05:46:21;14.50;97.04
69776;DHT22;57049;51.450;-2.516;2022-09-09T05:48:48;14.52;96.89
69776;DHT22;57049;51.450;-2.516;2022-09-09T05:51:20;14.49;96.96
69776;DHT22;57049;51.450;-2.516;2022-09-09T05:53:48;14.55;97.09
69776;DHT22;57049;51.450;-2.516;2022-09-09T05:56:21;14.60;96.84
69776;DHT22;57049;51.450;-2.516;2022-09-09T05:58:48;14.63;96.83
69776;DHT22;57049;51.450;-2.516;2022-09-09T06:03:41;14.62;96.43
69776;DHT22;57049;51.450;-2.516;2022-09-09T06:06:09;14.64;96.34
69776;DHT22;57049;51.450;-2.516;2022-09-09T06:08:37;14.72;95.79
69776;DHT22;57049;51.450;-2.516;2022-09-09T06:11:08;14.72;95.96
69776;DHT22;57049;51.450;-2.516;2022-09-09T06:13:34;14.77;94.93
69776;DHT22;57049;51.450;-2.516;2022-09-09T06:16:02;14.77;95.15
69776;DHT22;57049;51.450;-2.516;2022-09-09T06:18:29;14.77;95.56
69776;DHT22;57049;51.450;-2.516;2022-09-09T06:20:58;14.77;95.63
69776;DHT22;57049;51.450;-2.516;2022-09-09T06:23:25;14.73;94.98
69776;DHT22;57049;51.450;-2.516;2022-09-09T06:25:51;14.80;95.46
69776;DHT22;57049;51.450;-2.516;2022-09-09T06:28:17;14.77;95.59
69776;DHT22;57049;51.450;-2.516;2022-09-09T06:30:43;14.85;95.31
69776;DHT22;57049;51.450;-2.516;2022-09-09T06:33:09;14.90;94.77
69776;DHT22;57049;51.450;-2.516;2022-09-09T06:35:35;14.95;95.46
69776;DHT22;57049;51.450;-2.516;2022-09-09T06:38:01;15.03;94.71
69776;DHT22;57049;51.450;-2.516;2022-09-09T06:40:26;15.08;94.72
69776;DHT22;57049;51.450;-2.516;2022-09-09T06:42:52;15.11;95.34
69776;DHT22;57049;51.450;-2.516;2022-09-09T06:45:19;15.11;95.37
69776;DHT22;57049;51.450;-2.516;2022-09-09T06:47:45;15.07;95.16
69776;DHT22;57049;51.450;-2.516;2022-09-09T06:50:10;15.17;94.44
69776;DHT22;57049;51.450;-2.516;2022-09-09T06:52:36;15.15;94.31
69776;DHT22;57049;51.450;-2.516;2022-09-09T06:55:03;15.24;94.04
69776;DHT22;57049;51.450;-2.516;2022-09-09T06:57:29;15.24;93.27
69776;DHT22;57049;51.450;-2.516;2022-09-09T06:59:54;15.27;93.21
69776;DHT22;57049;51.450;-2.516;2022-09-09T07:02:20;15.23;92.89
69776;DHT22;57049;51.450;-2.516;2022-09-09T07:04:46;15.24;93.11
69776;DHT22;57049;51.450;-2.516;2022-09-09T07:07:12;15.23;92.24
69776;DHT22;57049;51.450;-2.516;2022-09-09T07:09:38;15.21;93.44
69776;DHT22;57049;51.450;-2.516;2022-09-09T07:12:05;15.24;92.90
69776;DHT22;57049;51.450;-2.516;2022-09-09T07:14:31;15.32;92.83
69776;DHT22;57049;51.450;-2.516;2022-09-09T07:16:59;15.42;92.88
69776;DHT22;57049;51.450;-2.516;2022-09-09T07:19:25;15.41;92.00
69776;DHT22;57049;51.450;-2.516;2022-09-09T07:21:51;15.49;91.03
69776;DHT22;57049;51.450;-2.516;2022-09-09T07:24:16;15.52;91.47
69776;DHT22;57049;51.450;-2.516;2022-09-09T07:26:42;15.48;91.59
69776;DHT22;57049;51.450;-2.516;2022-09-09T07:29:09;15.51;91.52
69776;DHT22;57049;51.450;-2.516;2022-09-09T07:31:37;15.59;91.89
69776;DHT22;57049;51.450;-2.516;2022-09-09T07:34:05;15.67;91.08
69776;DHT22;57049;51.450;-2.516;2022-09-09T07:36:36;16.31;89.58
69776;DHT22;57049;51.450;-2.516;2022-09-09T07:39:05;17.33;85.33
69776;DHT22;57049;51.450;-2.516;2022-09-09T07:41:34;17.67;84.73
69776;DHT22;57049;51.450;-2.516;2022-09-09T07:44:05;17.86;83.81
69776;DHT22;57049;51.450;-2.516;2022-09-09T07:46:31;17.90;83.44
69776;DHT22;57049;51.450;-2.516;2022-09-09T07:48:57;18.07;83.03
69776;DHT22;57049;51.450;-2.516;2022-09-09T07:51:29;17.80;83.92
69776;DHT22;57049;51.450;-2.516;2022-09-09T07:53:57;17.28;84.55
69776;DHT22;57049;51.450;-2.516;2022-09-09T07:56:24;16.92;85.75
69776;DHT22;57049;51.450;-2.516;2022-09-09T07:58:52;16.81;86.91
69776;DHT22;57049;51.450;-2.516;2022-09-09T08:01:20;16.77;86.98
69776;DHT22;57049;51.450;-2.516;2022-09-09T08:03:52;16.72;85.08
69776;DHT22;57049;51.450;-2.516;2022-09-09T08:06:18;16.81;84.93
69776;DHT22;57049;51.450;-2.516;2022-09-09T08:08:43;16.78;85.40
69776;DHT22;57049;51.450;-2.516;2022-09-09T08:11:15;17.19;84.87
69776;DHT22;57049;51.450;-2.516;2022-09-09T08:13:42;17.54;84.34
69776;DHT22;57049;51.450;-2.516;2022-09-09T08:16:11;17.59;82.13
69776;DHT22;57049;51.450;-2.516;2022-09-09T08:18:37;17.97;80.71
69776;DHT22;57049;51.450;-2.516;2022-09-09T08:21:11;17.91;80.50
69776;DHT22;57049;51.450;-2.516;2022-09-09T08:23:40;17.93;80.49
69776;DHT22;57049;51.450;-2.516;2022-09-09T08:26:12;17.84;80.99
69776;DHT22;57049;51.450;-2.516;2022-09-09T08:28:39;17.71;81.21
69776;DHT22;57049;51.450;-2.516;2022-09-09T08:31:17;17.66;82.26
69776;DHT22;57049;51.450;-2.516;2022-09-09T08:33:44;17.49;82.92
69776;DHT22;57049;51.450;-2.516;2022-09-09T08:36:14;17.32;83.69
69776;DHT22;57049;51.450;-2.516;2022-09-09T08:38:41;17.16;82.89
69776;DHT22;57049;51.450;-2.516;2022-09-09T08:44:14;17.02;83.74
69776;DHT22;57049;51.450;-2.516;2022-09-09T08:49:47;16.68;84.85
69776;DHT22;57049;51.450;-2.516;2022-09-09T08:52:48;16.64;84.56
69776;DHT22;57049;51.450;-2.516;2022-09-09T08:57:57;16.67;84.83
69776;DHT22;57049;51.450;-2.516;2022-09-09T09:00:32;16.74;84.53
69776;DHT22;57049;51.450;-2.516;2022-09-09T09:05:56;16.77;84.95
69776;DHT22;57049;51.450;-2.516;2022-09-09T09:08:36;17.02;85.19
69776;DHT22;57049;51.450;-2.516;2022-09-09T09:11:06;16.98;84.63
69776;DHT22;57049;51.450;-2.516;2022-09-09T09:16:22;16.81;84.24
69776;DHT22;57049;51.450;-2.516;2022-09-09T09:18:48;16.82;84.42
69776;DHT22;57049;51.450;-2.516;2022-09-09T09:21:21;16.84;84.28
69776;DHT22;57049;51.450;-2.516;2022-09-09T09:23:59;16.72;84.95
69776;DHT22;57049;51.450;-2.516;2022-09-09T09:26:30;16.69;85.29
69776;DHT22;57049;51.450;-2.516;2022-09-09T09:28:58;16.65;87.14
69776;DHT22;57049;51.450;-2.516;2022-09-09T09:31:24;16.56;87.04
69776;DHT22;57049;51.450;-2.516;2022-09-09T09:33:54;16.56;87.28
69776;DHT22;57049;51.450;-2.516;2022-09-09T09:36:21;16.57;86.84
69776;DHT22;57049;51.450;-2.516;2022-09-09T09:39:00;16.61;87.49
69776;DHT22;57049;51.450;-2.516;2022-09-09T09:41:44;16.63;86.75
69776;DHT22;57049;51.450;-2.516;2022-09-09T09:44:40;16.58;86.76
69776;DHT22;57049;51.450;-2.516;2022-09-09T09:47:13;16.63;86.88
69776;DHT22;57049;51.450;-2.516;2022-09-09T09:49:39;16.63;87.09
69776;DHT22;57049;51.450;-2.516;2022-09-09T09:52:06;16.63;86.52
69776;DHT22;57049;51.450;-2.516;2022-09-09T09:54:37;16.65;87.06
69776;DHT22;57049;51.450;-2.516;2022-09-09T09:57:14;16.58;88.61
69776;DHT22;57049;51.450;-2.516;2022-09-09T09:59:40;16.56;87.81
69776;DHT22;57049;51.450;-2.516;2022-09-09T10:02:39;16.51;87.15
69776;DHT22;57049;51.450;-2.516;2022-09-09T10:05:18;16.63;87.12
69776;DHT22;57049;51.450;-2.516;2022-09-09T10:07:44;16.47;89.55
69776;DHT22;57049;51.450;-2.516;2022-09-09T10:10:23;16.50;88.09
69776;DHT22;57049;51.450;-2.516;2022-09-09T10:54:47;16.91;88.80
69776;DHT22;57049;51.450;-2.516;2022-09-09T10:56:58;17.15;89.62
69776;DHT22;57049;51.450;-2.516;2022-09-09T10:59:31;17.39;86.84
69776;DHT22;57049;51.450;-2.516;2022-09-09T11:02:07;17.62;86.06
69776;DHT22;57049;51.450;-2.516;2022-09-09T11:04:55;17.86;86.02
69776;DHT22;57049;51.450;-2.516;2022-09-09T11:07:46;18.11;84.04
69776;DHT22;57049;51.450;-2.516;2022-09-09T11:10:25;18.27;83.74
69776;DHT22;57049;51.450;-2.516;2022-09-09T11:13:07;18.38;84.98
69776;DHT22;57049;51.450;-2.516;2022-09-09T11:15:51;18.72;83.48
69776;DHT22;57049;51.450;-2.516;2022-09-09T11:18:20;18.65;83.93
69776;DHT22;57049;51.450;-2.516;2022-09-09T11:20:50;18.88;81.97
69776;DHT22;57049;51.450;-2.516;2022-09-09T11:23:24;18.73;82.96
69776;DHT22;57049;51.450;-2.516;2022-09-09T11:25:59;18.73;83.26
69776;DHT22;57049;51.450;-2.516;2022-09-09T11:28:52;18.71;83.13
69776;DHT22;57049;51.450;-2.516;2022-09-09T11:34:21;19.50;82.41
69776;DHT22;57049;51.450;-2.516;2022-09-09T11:37:08;19.74;81.16
69776;DHT22;57049;51.450;-2.516;2022-09-09T11:39:43;19.99;78.76
69776;DHT22;57049;51.450;-2.516;2022-09-09T11:44:38;20.12;79.69
69776;DHT22;57049;51.450;-2.516;2022-09-09T11:47:25;19.98;79.80
69776;DHT22;57049;51.450;-2.516;2022-09-09T11:50:06;20.08;79.74
69776;DHT22;57049;51.450;-2.516;2022-09-09T11:52:48;20.04;78.89
69776;DHT22;57049;51.450;-2.516;2022-09-09T11:55:29;20.04;78.96
69776;DHT22;57049;51.450;-2.516;2022-09-09T11:58:00;20.46;77.37
69776;DHT22;57049;51.450;-2.516;2022-09-09T12:00:39;20.60;78.35
69776;DHT22;57049;51.450;-2.516;2022-09-09T12:03:46;20.24;77.34
69776;DHT22;57049;51.450;-2.516;2022-09-09T12:08:42;19.68;78.81
69776;DHT22;57049;51.450;-2.516;2022-09-09T12:11:08;19.63;78.70
69776;DHT22;57049;51.450;-2.516;2022-09-09T12:13:34;19.71;79.36
69776;DHT22;57049;51.450;-2.516;2022-09-09T12:16:00;19.61;79.15
69776;DHT22;57049;51.450;-2.516;2022-09-09T12:18:38;19.74;79.64
69776;DHT22;57049;51.450;-2.516;2022-09-09T12:21:30;19.91;78.41
69776;DHT22;57049;51.450;-2.516;2022-09-09T12:24:11;20.07;78.09
69776;DHT22;57049;51.450;-2.516;2022-09-09T12:29:50;19.64;79.86
69776;DHT22;57049;51.450;-2.516;2022-09-09T12:32:25;19.41;79.89
69776;DHT22;57049;51.450;-2.516;2022-09-09T12:35:03;19.54;79.03
69776;DHT22;57049;51.450;-2.516;2022-09-09T12:37:37;19.82;78.74
69776;DHT22;57049;51.450;-2.516;2022-09-09T12:40:06;19.92;80.17
69776;DHT22;57049;51.450;-2.516;2022-09-09T12:42:32;19.82;79.25
69776;DHT22;57049;51.450;-2.516;2022-09-09T12:45:02;19.60;80.60
69776;DHT22;57049;51.450;-2.516;2022-09-09T12:47:41;19.23;82.10
69776;DHT22;57049;51.450;-2.516;2022-09-09T12:52:52;18.83;82.87
69776;DHT22;57049;51.450;-2.516;2022-09-09T12:55:21;18.79;82.86
69776;DHT22;57049;51.450;-2.516;2022-09-09T12:57:50;18.54;83.69
69776;DHT22;57049;51.450;-2.516;2022-09-09T13:00:26;18.54;85.02
69776;DHT22;57049;51.450;-2.516;2022-09-09T13:02:57;18.71;84.92
69776;DHT22;57049;51.450;-2.516;2022-09-09T13:05:35;19.00;84.31
69776;DHT22;57049;51.450;-2.516;2022-09-09T13:10:31;18.91;81.89
69776;DHT22;57049;51.450;-2.516;2022-09-09T13:12:58;18.85;82.87
69776;DHT22;57049;51.450;-2.516;2022-09-09T13:15:27;18.62;83.32
69776;DHT22;57049;51.450;-2.516;2022-09-09T13:17:56;18.55;85.61
69776;DHT22;57049;51.450;-2.516;2022-09-09T13:20:23;18.52;84.46
69776;DHT22;57049;51.450;-2.516;2022-09-09T13:22:51;18.42;86.48
69776;DHT22;57049;51.450;-2.516;2022-09-09T13:25:28;18.38;87.47
69776;DHT22;57049;51.450;-2.516;2022-09-09T13:28:04;18.47;87.18
69776;DHT22;57049;51.450;-2.516;2022-09-09T13:30:34;18.91;86.75
69776;DHT22;57049;51.450;-2.516;2022-09-09T13:35:54;19.95;81.64
69776;DHT22;57049;51.450;-2.516;2022-09-09T13:38:20;20.26;81.03
69776;DHT22;57049;51.450;-2.516;2022-09-09T13:41:18;20.50;80.69
69776;DHT22;57049;51.450;-2.516;2022-09-09T13:43:47;20.39;80.42
69776;DHT22;57049;51.450;-2.516;2022-09-09T13:46:31;20.86;78.69
69776;DHT22;57049;51.450;-2.516;2022-09-09T13:48:58;21.21;77.63
69776;DHT22;57049;51.450;-2.516;2022-09-09T13:54:09;20.99;77.98
69776;DHT22;57049;51.450;-2.516;2022-09-09T13:56:36;20.48;78.14
69776;DHT22;57049;51.450;-2.516;2022-09-09T13:59:04;20.28;78.32
69776;DHT22;57049;51.450;-2.516;2022-09-09T14:01:30;20.14;79.60
69776;DHT22;57049;51.450;-2.516;2022-09-09T14:03:56;20.14;79.38
69776;DHT22;57049;51.450;-2.516;2022-09-09T14:06:22;20.55;77.55
69776;DHT22;57049;51.450;-2.516;2022-09-09T14:08:51;20.62;77.81
69776;DHT22;57049;51.450;-2.516;2022-09-09T14:11:18;20.83;77.15
69776;DHT22;57049;51.450;-2.516;2022-09-09T14:13:44;21.20;77.60
69776;DHT22;57049;51.450;-2.516;2022-09-09T14:16:09;20.89;77.95
69776;DHT22;57049;51.450;-2.516;2022-09-09T14:18:36;20.52;78.79
69776;DHT22;57049;51.450;-2.516;2022-09-09T14:21:03;20.46;77.81
69776;DHT22;57049;51.450;-2.516;2022-09-09T14:23:28;20.70;78.88
69776;DHT22;57049;51.450;-2.516;2022-09-09T14:25:55;20.36;78.66
69776;DHT22;57049;51.450;-2.516;2022-09-09T14:28:20;20.09;80.48
69776;DHT22;57049;51.450;-2.516;2022-09-09T14:30:46;19.64;81.29
69776;DHT22;57049;51.450;-2.516;2022-09-09T14:33:14;19.47;81.76
69776;DHT22;57049;51.450;-2.516;2022-09-09T14:35:40;19.84;81.50
69776;DHT22;57049;51.450;-2.516;2022-09-09T14:38:06;20.35;78.48
69776;DHT22;57049;51.450;-2.516;2022-09-09T14:40:34;20.50;78.02
69776;DHT22;57049;51.450;-2.516;2022-09-09T14:43:01;20.40;78.03
69776;DHT22;57049;51.450;-2.516;2022-09-09T14:45:27;20.59;76.94
69776;DHT22;57049;51.450;-2.516;2022-09-09T14:47:53;20.50;76.86
69776;DHT22;57049;51.450;-2.516;2022-09-09T14:50:20;20.05;76.56
69776;DHT22;57049;51.450;-2.516;2022-09-09T14:52:46;20.67;76.19
69776;DHT22;57049;51.450;-2.516;2022-09-09T14:55:12;21.12;74.39
69776;DHT22;57049;51.450;-2.516;2022-09-09T14:57:38;21.10;76.58
69776;DHT22;57049;51.450;-2.516;2022-09-09T15:00:05;20.91;75.75
69776;DHT22;57049;51.450;-2.516;2022-09-09T15:02:31;20.38;77.04
69776;DHT22;57049;51.450;-2.516;2022-09-09T15:04:57;19.94;78.62
69776;DHT22;57049;51.450;-2.516;2022-09-09T15:07:23;19.87;77.23
69776;DHT22;57049;51.450;-2.516;2022-09-09T15:09:49;19.61;76.68
69776;DHT22;57049;51.450;-2.516;2022-09-09T15:12:15;19.61;76.44
69776;DHT22;57049;51.450;-2.516;2022-09-09T15:14:40;19.88;76.71
69776;DHT22;57049;51.450;-2.516;2022-09-09T15:17:06;19.99;75.00
69776;DHT22;57049;51.450;-2.516;2022-09-09T15:19:32;20.12;76.58
69776;DHT22;57049;51.450;-2.516;2022-09-09T15:21:58;20.05;75.16
69776;DHT22;57049;51.450;-2.516;2022-09-09T15:24:25;20.30;76.16
69776;DHT22;57049;51.450;-2.516;2022-09-09T15:26:51;20.28;75.22
69776;DHT22;57049;51.450;-2.516;2022-09-09T15:29:17;20.38;77.03
69776;DHT22;57049;51.450;-2.516;2022-09-09T15:31:44;20.16;77.70
69776;DHT22;57049;51.450;-2.516;2022-09-09T15:34:09;20.19;77.45
69776;DHT22;57049;51.450;-2.516;2022-09-09T15:36:41;20.22;78.40
69776;DHT22;57049;51.450;-2.516;2022-09-09T15:39:08;20.12;78.55
69776;DHT22;57049;51.450;-2.516;2022-09-09T15:41:38;20.30;78.20
69776;DHT22;57049;51.450;-2.516;2022-09-09T15:44:04;20.55;77.05
69776;DHT22;57049;51.450;-2.516;2022-09-09T15:46:34;20.45;78.12
69776;DHT22;57049;51.450;-2.516;2022-09-09T15:49:13;20.18;78.07
69776;DHT22;57049;51.450;-2.516;2022-09-09T15:51:41;20.02;79.20
69776;DHT22;57049;51.450;-2.516;2022-09-09T15:54:07;19.91;79.42
69776;DHT22;57049;51.450;-2.516;2022-09-09T15:56:33;19.89;79.87
69776;DHT22;57049;51.450;-2.516;2022-09-09T15:59:00;19.88;80.16
69776;DHT22;57049;51.450;-2.516;2022-09-09T16:01:27;19.74;80.75
69776;DHT22;57049;51.450;-2.516;2022-09-09T16:03:53;19.56;80.15
69776;DHT22;57049;51.450;-2.516;2022-09-09T16:06:21;19.26;81.16
69776;DHT22;57049;51.450;-2.516;2022-09-09T16:08:49;19.27;80.69
69776;DHT22;57049;51.450;-2.516;2022-09-09T16:11:33;19.13;80.90
69776;DHT22;57049;51.450;-2.516;2022-09-09T16:13:59;19.03;80.96
69776;DHT22;57049;51.450;-2.516;2022-09-09T16:16:28;18.98;81.60
69776;DHT22;57049;51.450;-2.516;2022-09-09T16:18:56;18.93;81.50
69776;DHT22;57049;51.450;-2.516;2022-09-09T16:21:27;18.83;81.98
69776;DHT22;57049;51.450;-2.516;2022-09-09T16:23:59;18.88;82.17
69776;DHT22;57049;51.450;-2.516;2022-09-09T16:26:25;19.05;82.47
69776;DHT22;57049;51.450;-2.516;2022-09-09T16:28:51;19.13;82.01
69776;DHT22;57049;51.450;-2.516;2022-09-09T16:31:21;19.34;81.21
69776;DHT22;57049;51.450;-2.516;2022-09-09T16:33:47;19.63;79.01
69776;DHT22;57049;51.450;-2.516;2022-09-09T16:36:16;19.78;79.69
69776;DHT22;57049;51.450;-2.516;2022-09-09T16:38:42;19.81;79.76
69776;DHT22;57049;51.450;-2.516;2022-09-09T16:41:12;19.67;79.88
69776;DHT22;57049;51.450;-2.516;2022-09-09T16:43:38;19.41;80.22
69776;DHT22;57049;51.450;-2.516;2022-09-09T16:46:14;19.33;80.67
69776;DHT22;57049;51.450;-2.516;2022-09-09T16:48:42;19.19;81.04
69776;DHT22;57049;51.450;-2.516;2022-09-09T16:51:15;19.16;81.97
69776;DHT22;57049;51.450;-2.516;2022-09-09T16:53:41;19.07;81.55
69776;DHT22;57049;51.450;-2.516;2022-09-09T16:56:13;18.95;82.31
69776;DHT22;57049;51.450;-2.516;2022-09-09T16:58:39;18.85;82.87
69776;DHT22;57049;51.450;-2.516;2022-09-09T17:01:05;18.77;83.17
69776;DHT22;57049;51.450;-2.516;2022-09-09T17:03:31;18.72;83.43
69776;DHT22;57049;51.450;-2.516;2022-09-09T17:05:58;18.65;84.04
69776;DHT22;57049;51.450;-2.516;2022-09-09T17:08:30;18.73;84.02
69776;DHT22;57049;51.450;-2.516;2022-09-09T17:10:57;18.72;83.70
69776;DHT22;57049;51.450;-2.516;2022-09-09T17:13:23;18.62;83.77
69776;DHT22;57049;51.450;-2.516;2022-09-09T17:15:48;18.61;83.07
69776;DHT22;57049;51.450;-2.516;2022-09-09T17:18:14;18.62;82.86
69776;DHT22;57049;51.450;-2.516;2022-09-09T17:20:40;18.56;82.96